Time;durP1;ratioP1;P1;durP2;ratioP2;P2;SDS_P1;SDS_P2;PMS_P1;PMS_P2;Temp;Humidity;BMP_temperature;BMP_pressure;BME280_temperature;BME280_humidity;BME280_pressure;Samples;Min_cycle;Max_cycle;Signal;HPM_P1;HPM_P2
2021/12/15 00:00:39;;;;;;;23.90;15.40;;;7.30;99.90;;;;;;5022402;28;20504;-54
2021/12/15 00:03:07;;;;;;;24.15;16.48;;;7.20;99.90;;;;;;5021981;28;20235;-54
2021/12/15 00:05:35;;;;;;;25.95;17.23;;;7.10;99.90;;;;;;5021947;28;20201;-55
2021/12/15 00:08:07;;;;;;;24.40;16.83;;;7.20;99.90;;;;;;5031821;28;20244;-55
2021/12/15 00:10:35;;;;;;;29.67;17.13;;;7.10;99.90;;;;;;5030723;28;20264;-55
2021/12/15 00:13:02;;;;;;;27.42;17.77;;;7.00;99.90;;;;;;5023803;28;20409;-54
2021/12/15 00:15:30;;;;;;;26.60;15.20;;;7.00;99.90;;;;;;5021496;28;20228;-55
2021/12/15 00:17:58;;;;;;;24.33;17.15;;;7.10;99.90;;;;;;5021630;28;20196;-54
2021/12/15 00:20:27;;;;;;;21.10;16.45;;;7.10;99.90;;;;;;5018816;28;20214;-57
2021/12/15 00:22:55;;;;;;;27.75;17.98;;;7.20;99.90;;;;;;5021437;28;20569;-55
2021/12/15 00:25:26;;;;;;;23.42;16.13;;;7.20;99.90;;;;;;5021307;28;20273;-53
2021/12/15 00:27:53;;;;;;;29.17;16.90;;;7.10;99.90;;;;;;5021436;28;20201;-56
2021/12/15 00:30:21;;;;;;;24.92;16.48;;;7.20;99.90;;;;;;5021230;28;20201;-55
2021/12/15 00:32:50;;;;;;;22.45;14.40;;;7.30;99.90;;;;;;5021288;28;20539;-54
2021/12/15 00:35:18;;;;;;;25.77;17.70;;;7.50;99.90;;;;;;5021123;28;20232;-55
2021/12/15 00:37:46;;;;;;;21.63;15.73;;;7.50;99.90;;;;;;5018910;28;20205;-55
2021/12/15 00:40:17;;;;;;;23.67;16.08;;;7.60;99.90;;;;;;5020942;28;20201;-58
2021/12/15 00:42:45;;;;;;;24.65;16.95;;;7.50;99.90;;;;;;5018360;28;20220;-55
2021/12/15 00:45:13;;;;;;;22.67;16.48;;;7.40;99.90;;;;;;5020659;28;20443;-57
2021/12/15 00:47:40;;;;;;;25.95;15.70;;;7.30;99.90;;;;;;5021120;28;20209;-55
2021/12/15 00:50:10;;;;;;;28.83;16.58;;;7.40;99.90;;;;;;5020495;28;20247;-58
2021/12/15 00:52:40;;;;;;;27.45;16.25;;;7.40;99.90;;;;;;5017987;28;20459;-55
2021/12/15 00:55:10;;;;;;;26.05;17.25;;;7.40;99.90;;;;;;5020763;28;20444;-58
2021/12/15 00:57:37;;;;;;;24.27;14.95;;;7.40;99.90;;;;;;5020930;28;20197;-54
2021/12/15 01:00:13;;;;;;;27.27;16.80;;;7.50;99.90;;;;;;5020922;28;20197;-55
2021/12/15 01:02:41;;;;;;;29.08;16.33;;;7.50;99.90;;;;;;5020056;28;20216;-54
2021/12/15 01:05:12;;;;;;;27.48;17.83;;;7.50;99.90;;;;;;5018741;28;20223;-55
2021/12/15 01:07:40;;;;;;;28.10;17.38;;;7.60;99.90;;;;;;5020812;28;20303;-54
2021/12/15 01:10:11;;;;;;;25.45;15.93;;;7.60;99.90;;;;;;5023635;28;20201;-55
2021/12/15 01:14:31;;;;;;;22.25;14.57;;;7.70;99.90;;;;;;5028943;28;20229;-52
2021/12/15 01:21:17;;;;;;;24.98;16.20;;;7.90;99.90;;;;;;5020239;28;20204;-53
2021/12/15 01:23:44;;;;;;;23.45;15.02;;;7.90;99.90;;;;;;5017487;28;20205;-54
2021/12/15 01:26:14;;;;;;;26.55;17.00;;;7.80;99.90;;;;;;5020155;28;20428;-55
2021/12/15 01:28:42;;;;;;;33.17;16.52;;;7.80;99.90;;;;;;5020197;28;20201;-54
2021/12/15 01:31:10;;;;;;;21.33;14.15;;;7.70;99.90;;;;;;5019940;28;20539;-54
2021/12/15 01:33:39;;;;;;;24.73;15.35;;;7.70;99.90;;;;;;5020323;28;20208;-55
2021/12/15 01:36:08;;;;;;;24.48;16.52;;;7.60;99.90;;;;;;5019680;28;20216;-53
2021/12/15 01:38:38;;;;;;;27.92;16.10;;;7.70;99.90;;;;;;5012316;28;20236;-56
2021/12/15 01:41:18;;;;;;;24.00;15.48;;;7.50;99.90;;;;;;5016933;28;20205;-56
2021/12/15 01:46:56;;;;;;;22.25;14.85;;;7.50;99.90;;;;;;5017646;28;20515;-56
2021/12/15 01:49:53;;;;;;;26.52;17.30;;;7.50;99.90;;;;;;5019476;28;20419;-56
2021/12/15 01:52:33;;;;;;;24.42;15.60;;;7.50;99.90;;;;;;5013065;28;20228;-56
2021/12/15 01:55:13;;;;;;;25.95;16.90;;;7.30;99.90;;;;;;5019597;28;20220;-52
2021/12/15 01:57:42;;;;;;;25.70;17.98;;;7.10;99.90;;;;;;5019493;28;20193;-54
2021/12/15 02:00:18;;;;;;;27.50;17.27;;;7.20;99.90;;;;;;5019989;28;20200;-55
2021/12/15 02:02:46;;;;;;;27.48;15.98;;;7.20;99.90;;;;;;5017381;28;20224;-56
2021/12/15 02:05:14;;;;;;;38.60;19.08;;;7.30;99.90;;;;;;5020118;28;20220;-53
2021/12/15 02:07:45;;;;;;;29.42;16.90;;;7.30;99.90;;;;;;5017639;28;20203;-53
2021/12/15 02:10:12;;;;;;;30.05;19.27;;;7.50;99.90;;;;;;5019640;28;20217;-52
2021/12/15 02:12:55;;;;;;;36.83;19.30;;;7.50;99.90;;;;;;5018445;28;20533;-52
2021/12/15 02:15:29;;;;;;;32.20;20.27;;;7.70;99.90;;;;;;5019780;28;20326;-54
2021/12/15 02:17:58;;;;;;;24.58;18.45;;;7.50;99.90;;;;;;5020011;28;20204;-53
2021/12/15 02:20:31;;;;;;;29.13;17.75;;;7.50;99.90;;;;;;5019627;28;20507;-54
2021/12/15 02:22:59;;;;;;;33.85;20.08;;;7.40;99.90;;;;;;5019814;28;20224;-57
2021/12/15 02:25:26;;;;;;;31.45;17.48;;;7.40;99.90;;;;;;5020106;28;20209;-55
2021/12/15 02:27:54;;;;;;;25.67;16.42;;;7.60;99.90;;;;;;5017711;28;20282;-53
2021/12/15 02:30:46;;;;;;;31.92;19.63;;;7.50;99.90;;;;;;5018702;28;20209;-54
2021/12/15 02:38:36;;;;;;;30.45;17.45;;;7.50;99.90;;;;;;5019223;28;20220;-56
2021/12/15 02:41:09;;;;;;;40.80;24.55;;;7.20;99.90;;;;;;5020142;28;20205;-51
2021/12/15 02:43:37;;;;;;;37.40;20.27;;;7.10;99.90;;;;;;5018845;28;20256;-51
2021/12/15 02:46:06;;;;;;;37.40;21.00;;;7.10;99.90;;;;;;5019531;28;20212;-52
2021/12/15 02:48:33;;;;;;;31.25;19.50;;;7.20;99.90;;;;;;5016629;28;20554;-52
2021/12/15 02:51:01;;;;;;;37.28;21.58;;;7.20;99.90;;;;;;5022502;28;20445;-53
2021/12/15 02:53:29;;;;;;;40.63;19.63;;;7.30;99.90;;;;;;5021319;28;20220;-53
2021/12/15 02:55:56;;;;;;;32.67;18.88;;;7.10;99.90;;;;;;5019402;28;20543;-52
2021/12/15 02:58:24;;;;;;;36.15;19.60;;;7.10;99.90;;;;;;5019669;28;20430;-52
2021/12/15 03:01:02;;;;;;;34.95;20.65;;;7.30;99.90;;;;;;5017328;28;20219;-53
2021/12/15 03:06:51;;;;;;;37.10;21.05;;;7.10;99.90;;;;;;4978767;28;20718;-51
2021/12/15 03:17:29;;;;;;;43.92;19.67;;;7.10;99.90;;;;;;5023073;28;20220;-56
2021/12/15 03:19:57;;;;;;;34.70;18.98;;;7.20;99.90;;;;;;5024321;28;20492;-52
2021/12/15 03:22:24;;;;;;;45.60;23.73;;;7.10;99.90;;;;;;5019305;28;20287;-54
2021/12/15 03:24:52;;;;;;;43.65;20.23;;;7.20;99.90;;;;;;5024599;28;20197;-55
2021/12/15 03:27:25;;;;;;;36.58;21.27;;;7.30;99.90;;;;;;5023750;28;20435;-53
2021/12/15 03:35:47;;;;;;;41.75;20.88;;;7.30;99.90;;;;;;5024033;28;20212;-55
2021/12/15 03:38:15;;;;;;;36.85;21.77;;;7.50;99.90;;;;;;5023819;28;20197;-54
2021/12/15 03:40:42;;;;;;;37.60;20.98;;;7.70;99.90;;;;;;5022923;28;20205;-56
2021/12/15 03:43:14;;;;;;;43.45;19.83;;;7.40;99.90;;;;;;5021978;28;20287;-55
2021/12/15 03:45:45;;;;;;;43.47;21.00;;;7.30;99.90;;;;;;5020053;28;20313;-56
2021/12/15 03:48:19;;;;;;;43.63;21.38;;;7.50;99.90;;;;;;5022180;28;20201;-53
2021/12/15 03:50:46;;;;;;;38.45;20.30;;;7.50;99.90;;;;;;5021899;28;20204;-56
2021/12/15 03:53:15;;;;;;;38.97;20.30;;;7.60;99.90;;;;;;5019600;28;20220;-55
2021/12/15 03:55:44;;;;;;;47.35;18.85;;;7.70;99.90;;;;;;5022034;28;20259;-56
2021/12/15 03:58:14;;;;;;;35.95;18.42;;;7.80;99.90;;;;;;5022019;28;20235;-56
2021/12/15 04:00:46;;;;;;;42.42;21.13;;;7.80;99.90;;;;;;5021737;28;20193;-56
2021/12/15 04:03:23;;;;;;;35.17;18.02;;;7.90;99.90;;;;;;5021553;28;20435;-56
2021/12/15 04:05:50;;;;;;;36.78;18.27;;;7.90;99.90;;;;;;5022462;28;20224;-55
2021/12/15 04:08:18;;;;;;;38.33;18.42;;;7.80;99.90;;;;;;5021215;28;20205;-56
2021/12/15 04:10:45;;;;;;;43.17;20.77;;;7.70;99.90;;;;;;5021648;28;20255;-57
2021/12/15 04:13:13;;;;;;;50.15;21.08;;;7.60;99.90;;;;;;5021434;28;20340;-53
2021/12/15 04:16:42;;;;;;;33.63;18.67;;;7.70;99.90;;;;;;5019006;28;20224;-53
2021/12/15 04:18:32;;;;;;;32.20;17.33;;;7.60;99.90;;;;;;5014286;28;20196;-52
2021/12/15 04:20:59;;;;;;;34.08;19.50;;;7.60;99.90;;;;;;5021514;28;20216;-51
2021/12/15 04:23:27;;;;;;;31.83;16.33;;;7.90;99.90;;;;;;5021490;28;20220;-52
2021/12/15 04:25:56;;;;;;;29.65;16.65;;;7.90;99.90;;;;;;5021258;28;20531;-57
2021/12/15 04:28:28;;;;;;;27.63;15.07;;;7.80;99.90;;;;;;5021090;28;20201;-53
2021/12/15 04:30:59;;;;;;;33.03;15.25;;;7.70;99.90;;;;;;5022913;28;20208;-55
2021/12/15 04:33:56;;;;;;;41.05;20.30;;;7.70;99.90;;;;;;5029375;28;20252;-56
2021/12/15 04:36:28;;;;;;;45.30;18.52;;;7.50;99.90;;;;;;5020799;28;20279;-54
2021/12/15 04:38:57;;;;;;;42.13;18.60;;;7.70;99.90;;;;;;5021251;28;20243;-56
2021/12/15 04:41:25;;;;;;;47.22;19.13;;;7.70;99.90;;;;;;5020615;28;21613;-56
2021/12/15 04:44:10;;;;;;;33.95;18.75;;;7.60;99.90;;;;;;5019863;28;20236;-57
2021/12/15 04:46:48;;;;;;;40.38;16.27;;;7.60;99.90;;;;;;5018306;28;20208;-54
2021/12/15 04:49:18;;;;;;;41.25;17.15;;;7.50;99.90;;;;;;5018924;28;20200;-57
2021/12/15 04:51:47;;;;;;;42.67;16.65;;;7.70;99.90;;;;;;5013277;28;20228;-56
2021/12/15 04:54:18;;;;;;;40.20;17.55;;;7.80;99.90;;;;;;5020276;28;20213;-55
2021/12/15 04:56:46;;;;;;;47.17;20.10;;;7.80;99.90;;;;;;5008866;28;20229;-55
2021/12/15 04:59:14;;;;;;;56.30;19.40;;;7.80;99.90;;;;;;5014540;28;20251;-57
2021/12/15 05:01:43;;;;;;;41.30;18.88;;;7.70;99.90;;;;;;5017951;28;20452;-55
2021/12/15 05:04:12;;;;;;;49.00;21.33;;;7.70;99.90;;;;;;5016438;28;20200;-56
2021/12/15 05:06:39;;;;;;;47.30;21.05;;;7.80;99.90;;;;;;5021055;28;20239;-55
2021/12/15 05:09:07;;;;;;;38.25;18.45;;;7.90;99.90;;;;;;5013342;28;20295;-54
2021/12/15 05:11:35;;;;;;;48.85;18.67;;;7.70;99.90;;;;;;5020908;28;20286;-52
2021/12/15 05:14:04;;;;;;;34.30;17.00;;;7.80;99.90;;;;;;5020761;28;20205;-54
2021/12/15 05:16:32;;;;;;;51.00;19.80;;;7.90;99.90;;;;;;5012869;28;20213;-54
2021/12/15 05:19:00;;;;;;;55.53;18.80;;;8.00;99.90;;;;;;5021291;28;20265;-52
2021/12/15 05:21:30;;;;;;;40.58;17.67;;;8.00;99.90;;;;;;5020594;28;20264;-53
2021/12/15 05:24:02;;;;;;;51.50;19.10;;;8.00;99.90;;;;;;5020663;28;20258;-52
2021/12/15 05:26:30;;;;;;;41.42;18.88;;;8.00;99.90;;;;;;5012676;28;20209;-52
2021/12/15 05:28:58;;;;;;;48.33;19.67;;;8.20;99.90;;;;;;5023336;28;20205;-56
2021/12/15 05:31:25;;;;;;;37.90;14.77;;;8.10;99.90;;;;;;5015822;28;20269;-57
2021/12/15 05:33:53;;;;;;;49.28;17.83;;;8.10;99.90;;;;;;5002283;28;20201;-53
2021/12/15 05:36:20;;;;;;;52.50;19.13;;;7.80;99.90;;;;;;5002864;28;20241;-51
2021/12/15 05:38:48;;;;;;;51.75;18.20;;;8.00;99.90;;;;;;5012365;28;20504;-52
2021/12/15 05:41:16;;;;;;;39.90;18.13;;;8.10;99.90;;;;;;5020785;28;20211;-55
2021/12/15 05:43:44;;;;;;;41.33;21.13;;;8.10;99.90;;;;;;5020596;28;20578;-54
2021/12/15 05:46:11;;;;;;;37.13;18.08;;;8.20;99.90;;;;;;5021123;28;20240;-52
2021/12/15 05:48:39;;;;;;;65.97;24.40;;;8.30;99.90;;;;;;5030197;28;20209;-55
2021/12/15 05:51:07;;;;;;;39.72;17.17;;;8.40;99.90;;;;;;5029660;28;20197;-59
2021/12/15 05:53:35;;;;;;;37.85;19.15;;;8.50;99.90;;;;;;5029869;28;20204;-58
2021/12/15 05:56:02;;;;;;;37.28;18.27;;;8.40;99.90;;;;;;5022281;28;20200;-56
2021/12/15 05:58:32;;;;;;;37.85;16.38;;;8.40;99.90;;;;;;5017923;28;20197;-54
2021/12/15 06:00:59;;;;;;;39.53;17.38;;;8.30;99.90;;;;;;5003862;28;20401;-59
2021/12/15 06:03:27;;;;;;;37.28;17.10;;;8.30;99.90;;;;;;5012048;28;20256;-53
2021/12/15 06:05:54;;;;;;;32.40;16.58;;;8.40;99.90;;;;;;5013776;28;20196;-53
2021/12/15 06:08:22;;;;;;;34.38;15.52;;;8.50;99.90;;;;;;5019951;28;20197;-56
2021/12/15 06:10:49;;;;;;;42.33;16.08;;;8.30;99.90;;;;;;5020516;28;20197;-56
2021/12/15 06:13:17;;;;;;;32.45;15.05;;;8.10;99.90;;;;;;5028749;28;20209;-55
2021/12/15 06:15:45;;;;;;;40.38;16.58;;;8.20;99.90;;;;;;5025180;28;20200;-57
2021/12/15 06:18:17;;;;;;;29.27;15.85;;;8.20;99.90;;;;;;5020197;28;20232;-57
2021/12/15 06:20:46;;;;;;;45.72;18.17;;;8.30;99.90;;;;;;5020706;28;20244;-54
2021/12/15 06:23:19;;;;;;;40.97;17.20;;;8.30;99.90;;;;;;5020199;28;20229;-54
2021/12/15 06:25:58;;;;;;;32.03;13.85;;;8.20;99.90;;;;;;5019954;28;20439;-55
2021/12/15 06:28:30;;;;;;;35.13;17.33;;;8.20;99.90;;;;;;5020450;28;20201;-54
2021/12/15 06:30:59;;;;;;;35.63;17.75;;;8.40;99.90;;;;;;5019822;28;20349;-54
2021/12/15 06:33:29;;;;;;;42.25;18.60;;;8.30;99.90;;;;;;5020396;28;20288;-52
2021/12/15 06:35:59;;;;;;;41.42;16.63;;;8.30;99.90;;;;;;5021006;28;20263;-55
2021/12/15 06:38:33;;;;;;;33.78;16.73;;;8.40;99.90;;;;;;5020267;28;20249;-54
2021/12/15 06:41:03;;;;;;;42.45;18.10;;;8.30;99.90;;;;;;5020647;28;20196;-54
2021/12/15 06:43:31;;;;;;;32.60;17.42;;;8.20;99.90;;;;;;5024180;28;20508;-54
2021/12/15 06:59:39;;;;;;;56.30;18.13;;;8.00;99.90;;;;;;5023481;28;20205;-55
2021/12/15 07:02:06;;;;;;;41.33;18.98;;;8.10;99.90;;;;;;5023966;28;20217;-54
2021/12/15 07:04:34;;;;;;;42.45;19.00;;;8.20;99.90;;;;;;5023446;28;20446;-56
2021/12/15 07:07:04;;;;;;;40.80;16.52;;;8.30;99.90;;;;;;5022675;28;20200;-57
2021/12/15 07:09:33;;;;;;;44.95;17.50;;;8.30;99.90;;;;;;5023568;28;20223;-56
2021/12/15 07:12:03;;;;;;;38.92;19.50;;;8.20;99.90;;;;;;5023361;28;20570;-53
2021/12/15 07:14:32;;;;;;;53.30;21.08;;;8.20;99.90;;;;;;5023018;28;20208;-56
2021/12/15 07:17:02;;;;;;;37.90;17.67;;;8.20;99.90;;;;;;5023283;28;20478;-54
2021/12/15 07:19:44;;;;;;;42.08;20.17;;;8.30;99.90;;;;;;5023377;28;20228;-56
2021/12/15 07:22:29;;;;;;;46.75;17.95;;;8.30;99.90;;;;;;5023010;28;20217;-54
2021/12/15 07:24:57;;;;;;;48.53;21.95;;;8.30;99.90;;;;;;5022271;28;20197;-52
2021/12/15 07:27:25;;;;;;;41.72;19.08;;;8.20;99.90;;;;;;5023338;28;20205;-54
2021/12/15 07:29:52;;;;;;;48.85;21.00;;;8.20;99.90;;;;;;5023343;28;20419;-56
2021/12/15 07:32:20;;;;;;;40.15;18.85;;;8.30;99.90;;;;;;5023174;28;20275;-56
2021/12/15 07:34:47;;;;;;;46.40;20.08;;;8.40;99.90;;;;;;5023474;28;20209;-56
2021/12/15 07:37:15;;;;;;;39.58;18.30;;;8.50;99.90;;;;;;5022897;28;20447;-55
2021/12/15 07:39:53;;;;;;;42.35;21.38;;;8.50;99.90;;;;;;5022929;28;20435;-59
2021/12/15 07:42:31;;;;;;;36.55;18.00;;;8.50;99.90;;;;;;5022600;28;20581;-55
2021/12/15 07:44:58;;;;;;;38.00;18.48;;;8.60;99.90;;;;;;5020774;28;20196;-55
2021/12/15 07:47:25;;;;;;;31.80;16.60;;;8.50;99.90;;;;;;5022499;28;20252;-55
2021/12/15 07:49:53;;;;;;;39.05;19.42;;;8.40;99.90;;;;;;5021378;28;20206;-55
2021/12/15 07:52:21;;;;;;;40.22;18.75;;;8.40;99.90;;;;;;5028916;28;20221;-54
2021/12/15 07:54:48;;;;;;;33.35;18.15;;;8.40;99.90;;;;;;5028975;28;20208;-54
2021/12/15 07:57:18;;;;;;;40.97;17.55;;;8.50;99.90;;;;;;5023241;28;20220;-57
2021/12/15 07:59:46;;;;;;;34.25;19.45;;;8.60;99.90;;;;;;5022754;28;20511;-57
2021/12/15 08:02:14;;;;;;;38.85;15.43;;;8.60;99.90;;;;;;5022334;28;20542;-56
2021/12/15 08:04:42;;;;;;;32.75;18.23;;;8.50;99.90;;;;;;5022206;28;20197;-54
2021/12/15 08:07:09;;;;;;;31.35;16.25;;;8.40;99.90;;;;;;5022352;28;20216;-57
2021/12/15 08:09:37;;;;;;;35.45;17.85;;;8.30;99.90;;;;;;5022686;28;20492;-55
2021/12/15 08:12:04;;;;;;;39.33;18.95;;;8.30;99.90;;;;;;5021985;28;20229;-55
2021/12/15 08:14:32;;;;;;;34.15;19.13;;;8.40;99.90;;;;;;5023718;28;20212;-56
2021/12/15 08:16:59;;;;;;;27.83;18.48;;;8.70;99.90;;;;;;5026695;28;20240;-54
2021/12/15 08:19:26;;;;;;;24.20;14.13;;;8.70;99.90;;;;;;5022376;28;20197;-56
2021/12/15 08:21:54;;;;;;;30.83;16.98;;;8.80;99.90;;;;;;5022237;28;20483;-55
2021/12/15 08:24:21;;;;;;;34.22;18.25;;;8.60;99.90;;;;;;5021568;28;20251;-51
2021/12/15 08:26:49;;;;;;;32.55;17.10;;;8.60;99.90;;;;;;5022102;28;20200;-55
2021/12/15 08:29:16;;;;;;;25.33;15.57;;;8.60;99.90;;;;;;5022977;28;20205;-56
2021/12/15 08:31:44;;;;;;;26.05;15.43;;;8.50;99.90;;;;;;5023283;28;20275;-56
2021/12/15 08:34:11;;;;;;;29.42;14.63;;;8.80;99.90;;;;;;5021956;28;20204;-56
2021/12/15 08:36:40;;;;;;;23.60;13.02;;;8.90;99.90;;;;;;5021920;28;20507;-53
2021/12/15 08:39:08;;;;;;;27.13;15.05;;;9.00;99.90;;;;;;5022291;28;20197;-54
2021/12/15 08:41:36;;;;;;;29.08;15.38;;;8.80;99.90;;;;;;5021648;28;20267;-52
2021/12/15 08:44:06;;;;;;;26.73;13.32;;;8.70;99.90;;;;;;5022158;28;20197;-53
2021/12/15 08:46:39;;;;;;;24.20;12.73;;;8.60;99.90;;;;;;5022109;28;20303;-55
2021/12/15 08:49:12;;;;;;;24.48;13.02;;;8.70;99.90;;;;;;5022462;28;20207;-53
2021/12/15 08:51:40;;;;;;;26.65;15.85;;;8.70;99.90;;;;;;5021807;28;20221;-55
2021/12/15 08:54:14;;;;;;;27.52;13.43;;;9.20;99.90;;;;;;5022484;28;20204;-57
2021/12/15 08:56:43;;;;;;;23.20;15.20;;;9.40;99.90;;;;;;5025788;28;20247;-52
2021/12/15 08:59:11;;;;;;;24.88;14.55;;;9.40;99.90;;;;;;5021877;28;20260;-56
2021/12/15 09:01:41;;;;;;;26.10;15.07;;;9.30;99.90;;;;;;5021390;28;20221;-56
2021/12/15 09:04:08;;;;;;;18.95;11.98;;;9.20;99.90;;;;;;5021041;28;20197;-58
2021/12/15 09:06:38;;;;;;;21.40;13.93;;;9.10;99.90;;;;;;5021237;28;20209;-56
2021/12/15 09:09:09;;;;;;;20.33;11.45;;;9.10;99.90;;;;;;5021428;28;20201;-54
2021/12/15 09:11:37;;;;;;;18.95;12.20;;;9.30;99.90;;;;;;5021762;28;20221;-56
2021/12/15 09:14:06;;;;;;;22.40;13.52;;;9.20;99.90;;;;;;5021227;28;20350;-56
2021/12/15 09:16:35;;;;;;;17.70;11.18;;;9.20;99.90;;;;;;5021386;28;20198;-57
2021/12/15 09:19:06;;;;;;;14.20;11.43;;;9.20;99.90;;;;;;5021447;28;20555;-57
2021/12/15 09:21:35;;;;;;;18.58;12.38;;;9.50;99.90;;;;;;5021146;28;20237;-56
2021/12/15 09:24:06;;;;;;;20.83;13.38;;;9.60;99.90;;;;;;5021566;28;20201;-55
2021/12/15 09:26:33;;;;;;;18.02;11.30;;;9.90;99.90;;;;;;5021061;28;20496;-58
2021/12/15 09:29:03;;;;;;;17.90;10.38;;;9.80;99.90;;;;;;5021484;28;20204;-55
2021/12/15 09:31:31;;;;;;;15.77;11.15;;;9.80;99.90;;;;;;5027272;28;20228;-56
2021/12/15 09:34:00;;;;;;;17.23;11.02;;;9.80;99.90;;;;;;5027784;28;20208;-56
2021/12/15 09:36:28;;;;;;;17.48;10.48;;;9.70;99.90;;;;;;5021117;28;20213;-55
2021/12/15 09:39:03;;;;;;;15.00;11.75;;;9.70;99.90;;;;;;5021075;28;20230;-56
2021/12/15 09:41:31;;;;;;;17.67;11.23;;;9.80;99.90;;;;;;5020738;28;20313;-55
2021/12/15 09:44:06;;;;;;;18.58;10.15;;;9.80;99.90;;;;;;5020475;28;20213;-54
2021/12/15 09:47:03;;;;;;;13.05;9.63;;;9.80;99.90;;;;;;5020935;28;20205;-56
2021/12/15 10:03:11;;;;;;;12.60;10.15;;;9.90;99.90;;;;;;5020352;28;20225;-56
2021/12/15 10:11:15;;;;;;;13.50;8.68;;;10.10;99.90;;;;;;5020737;28;20191;-54
2021/12/15 10:19:35;;;;;;;12.38;9.25;;;9.80;99.90;;;;;;5020593;28;20200;-54
2021/12/15 10:22:06;;;;;;;10.23;8.15;;;9.80;99.90;;;;;;5020550;28;20222;-56
2021/12/15 10:24:48;;;;;;;9.57;7.82;;;9.80;99.90;;;;;;5020691;28;20205;-53
2021/12/15 10:27:31;;;;;;;11.98;8.68;;;9.80;99.90;;;;;;5020064;28;20395;-55
2021/12/15 10:30:09;;;;;;;10.55;7.30;;;10.00;99.90;;;;;;5020314;28;20249;-56
2021/12/15 10:32:39;;;;;;;13.70;11.70;;;9.90;99.90;;;;;;5020015;28;20268;-55
2021/12/15 10:35:14;;;;;;;9.70;8.65;;;10.10;99.90;;;;;;5019584;28;20214;-56
2021/12/15 10:37:42;;;;;;;10.98;8.25;;;9.90;99.90;;;;;;5019514;28;20217;-54
2021/12/15 10:40:23;;;;;;;8.82;6.57;;;10.10;99.90;;;;;;5019923;28;20225;-56
2021/12/15 10:43:04;;;;;;;10.32;7.05;;;10.20;99.90;;;;;;5020016;28;20241;-55
2021/12/15 10:45:40;;;;;;;7.78;6.50;;;10.10;99.90;;;;;;5019859;28;20207;-54
2021/12/15 10:48:15;;;;;;;8.32;6.43;;;10.10;99.90;;;;;;5020368;28;20617;-56
2021/12/15 10:50:42;;;;;;;8.82;5.93;;;10.00;99.90;;;;;;5020220;28;20201;-57
2021/12/15 10:53:10;;;;;;;9.25;6.78;;;9.90;99.90;;;;;;5019842;28;20587;-53
2021/12/15 10:55:38;;;;;;;7.97;6.63;;;10.00;99.90;;;;;;5022681;28;20209;-56
2021/12/15 10:58:32;;;;;;;12.13;8.30;;;10.00;99.90;;;;;;5029207;28;20433;-57
2021/12/15 11:01:02;;;;;;;7.53;5.95;;;9.90;99.90;;;;;;5029092;28;20264;-58
2021/12/15 11:03:36;;;;;;;9.23;6.68;;;9.90;99.90;;;;;;5027652;28;20252;-55
2021/12/15 11:06:21;;;;;;;15.23;8.57;;;9.90;99.90;;;;;;5030297;28;20199;-56
2021/12/15 11:09:08;;;;;;;7.65;5.70;;;10.20;99.90;;;;;;5023562;28;20236;-56
2021/12/15 11:11:58;;;;;;;9.18;7.45;;;10.20;99.90;;;;;;5026841;28;20223;-56
2021/12/15 11:14:32;;;;;;;8.10;6.45;;;10.10;99.90;;;;;;5026790;28;20202;-55
2021/12/15 11:17:13;;;;;;;7.60;6.90;;;10.20;99.90;;;;;;5021084;28;20264;-56
2021/12/15 11:20:12;;;;;;;9.93;7.55;;;10.20;99.90;;;;;;5019243;28;20193;-58
2021/12/15 11:22:45;;;;;;;10.88;7.85;;;10.40;99.90;;;;;;5019989;28;20529;-55
2021/12/15 11:25:35;;;;;;;11.35;7.68;;;10.50;99.90;;;;;;5019296;28;20199;-58
2021/12/15 11:28:22;;;;;;;12.23;7.30;;;10.40;99.90;;;;;;5020618;28;20256;-56
2021/12/15 11:31:00;;;;;;;8.52;6.72;;;10.20;99.90;;;;;;5022939;28;20219;-56
2021/12/15 11:33:29;;;;;;;9.25;7.75;;;10.30;99.90;;;;;;5023291;28;20224;-56
2021/12/15 11:36:07;;;;;;;8.05;6.72;;;10.50;99.90;;;;;;5023310;28;20203;-56
2021/12/15 11:38:42;;;;;;;8.40;5.50;;;10.70;99.90;;;;;;5023027;28;20223;-55
2021/12/15 11:41:14;;;;;;;7.82;6.05;;;10.60;99.90;;;;;;5022939;28;20207;-56
2021/12/15 11:43:50;;;;;;;8.32;7.53;;;10.40;99.90;;;;;;5023641;28;20250;-54
2021/12/15 11:46:25;;;;;;;8.40;6.45;;;10.50;99.90;;;;;;5025136;28;20198;-54
2021/12/15 11:49:03;;;;;;;9.18;7.47;;;10.60;99.90;;;;;;5023378;28;20271;-54
2021/12/15 11:51:42;;;;;;;12.30;8.23;;;10.70;99.90;;;;;;5023344;28;20222;-54
2021/12/15 11:54:20;;;;;;;11.65;6.75;;;10.60;99.90;;;;;;5028678;28;20203;-56
2021/12/15 11:56:55;;;;;;;8.57;6.38;;;10.70;99.90;;;;;;5030057;28;20201;-55
2021/12/15 11:59:27;;;;;;;8.30;6.72;;;10.60;99.90;;;;;;5029965;28;20242;-57
2021/12/15 12:02:10;;;;;;;10.32;7.15;;;10.70;99.90;;;;;;5026360;28;20219;-57
2021/12/15 12:04:46;;;;;;;9.60;6.32;;;10.70;99.90;;;;;;5022734;28;20216;-57
2021/12/15 12:07:38;;;;;;;10.48;7.45;;;10.40;99.90;;;;;;5022618;28;20258;-57
2021/12/15 12:10:13;;;;;;;7.82;7.07;;;10.60;99.90;;;;;;5021804;28;20241;-54
2021/12/15 12:12:54;;;;;;;9.30;6.10;;;10.50;99.90;;;;;;5022292;28;20590;-58
2021/12/15 12:15:27;;;;;;;14.38;8.30;;;10.20;99.90;;;;;;5022146;28;20201;-56
2021/12/15 12:18:04;;;;;;;11.95;8.32;;;10.00;99.90;;;;;;5022459;28;20525;-57
2021/12/15 12:20:38;;;;;;;12.57;8.00;;;10.00;99.90;;;;;;5022451;28;20201;-57
2021/12/15 12:23:10;;;;;;;8.95;6.25;;;9.80;99.90;;;;;;5022379;28;20222;-57
2021/12/15 12:25:50;;;;;;;11.63;6.22;;;9.80;99.90;;;;;;5021924;28;20198;-56
2021/12/15 12:28:23;;;;;;;10.45;6.28;;;9.70;99.90;;;;;;5021733;28;20252;-56
2021/12/15 12:31:04;;;;;;;11.18;7.97;;;9.60;99.90;;;;;;5022233;28;20208;-59
2021/12/15 12:33:32;;;;;;;8.15;6.18;;;9.50;99.90;;;;;;5021639;28;20220;-58
2021/12/15 12:36:21;;;;;;;10.80;6.97;;;9.50;99.90;;;;;;5022399;28;20263;-55
2021/12/15 12:38:51;;;;;;;7.90;7.10;;;9.40;99.90;;;;;;5021778;28;20460;-56
2021/12/15 12:41:25;;;;;;;9.00;6.35;;;9.30;99.90;;;;;;5022018;28;20441;-57
2021/12/15 12:43:58;;;;;;;9.73;6.90;;;9.30;99.90;;;;;;5021754;28;20256;-57
2021/12/15 12:46:37;;;;;;;7.30;6.15;;;9.30;99.90;;;;;;5022093;28;20522;-56
2021/12/15 13:00:34;;;;;;;9.70;7.50;;;9.30;99.90;;;;;;5021320;28;20267;-56
2021/12/15 13:03:09;;;;;;;11.88;8.27;;;9.20;99.90;;;;;;5021717;28;20296;-53
2021/12/15 13:05:40;;;;;;;9.07;7.40;;;9.10;99.90;;;;;;5021259;28;20263;-57
2021/12/15 13:08:14;;;;;;;9.40;8.15;;;9.20;99.90;;;;;;5021190;28;20205;-57
2021/12/15 13:10:52;;;;;;;10.93;8.00;;;9.10;99.90;;;;;;5021390;28;20201;-55
2021/12/15 13:13:23;;;;;;;11.68;7.65;;;9.10;99.90;;;;;;5020831;28;20266;-55
2021/12/15 13:16:10;;;;;;;12.52;9.18;;;9.20;99.90;;;;;;5021541;28;20201;-58
2021/12/15 13:18:49;;;;;;;10.50;7.68;;;9.20;99.90;;;;;;5020851;28;20260;-58
2021/12/15 13:21:21;;;;;;;11.13;8.10;;;9.20;99.90;;;;;;5021108;28;20200;-55
2021/12/15 13:23:55;;;;;;;13.02;9.25;;;9.10;99.90;;;;;;5020606;28;20234;-57
2021/12/15 13:29:52;;;;;;;11.82;8.73;;;9.00;99.90;;;;;;5009807;28;20408;-55
2021/12/15 13:32:25;;;;;;;15.18;9.02;;;9.10;99.90;;;;;;5021344;28;20299;-54
2021/12/15 13:34:55;;;;;;;11.63;7.68;;;9.20;99.90;;;;;;5020546;28;20223;-55
2021/12/15 13:37:53;;;;;;;12.70;8.02;;;9.30;99.90;;;;;;5020621;28;20208;-56
2021/12/15 13:40:53;;;;;;;11.85;8.27;;;9.20;99.90;;;;;;5020769;28;20247;-55
2021/12/15 13:43:35;;;;;;;13.32;7.95;;;9.20;99.90;;;;;;5028983;28;20217;-58
2021/12/15 13:46:07;;;;;;;12.48;9.23;;;9.20;99.90;;;;;;5026118;28;20431;-58
2021/12/15 13:49:00;;;;;;;12.50;8.60;;;9.30;99.90;;;;;;5021253;28;20559;-56
2021/12/15 13:51:51;;;;;;;14.50;8.18;;;9.40;99.90;;;;;;5021439;28;20232;-56
2021/12/15 13:54:34;;;;;;;9.25;7.70;;;9.40;99.90;;;;;;5020486;28;20211;-55
2021/12/15 13:57:13;;;;;;;11.27;7.85;;;9.30;99.90;;;;;;5020181;28;20239;-57
2021/12/15 13:59:53;;;;;;;8.10;6.88;;;9.30;99.90;;;;;;5020375;28;20220;-56
2021/12/15 14:02:25;;;;;;;9.88;8.85;;;9.10;99.90;;;;;;5020183;28;20523;-56
2021/12/15 14:04:58;;;;;;;14.15;10.18;;;9.20;99.90;;;;;;5020107;28;20197;-54
2021/12/15 14:07:28;;;;;;;14.30;10.13;;;9.10;99.90;;;;;;5020241;28;20272;-56
2021/12/15 14:09:59;;;;;;;9.13;7.43;;;9.10;99.90;;;;;;5020314;28;20201;-53
2021/12/15 14:12:45;;;;;;;9.85;8.73;;;9.00;99.90;;;;;;5020320;28;20248;-55
2021/12/15 14:15:25;;;;;;;11.50;9.40;;;9.00;99.90;;;;;;5024508;28;20205;-55
2021/12/15 14:18:31;;;;;;;9.90;8.13;;;9.00;99.90;;;;;;5002980;28;20254;-56
2021/12/15 14:21:06;;;;;;;11.27;8.35;;;9.10;99.90;;;;;;5004941;28;20217;-54
2021/12/15 14:23:44;;;;;;;11.95;8.75;;;9.00;99.90;;;;;;5007222;28;20205;-55
2021/12/15 14:26:34;;;;;;;11.25;10.10;;;8.90;99.90;;;;;;5006048;28;20209;-55
2021/12/15 14:29:13;;;;;;;14.10;9.85;;;8.90;99.90;;;;;;5004993;28;20516;-55
2021/12/15 14:31:43;;;;;;;16.05;9.30;;;8.90;99.90;;;;;;5005806;28;20258;-51